Time;durP1;ratioP1;P1;durP2;ratioP2;P2;SDS_P1;SDS_P2;PMS_P1;PMS_P2;Temp;Humidity;BMP_temperature;BMP_pressure;BME280_temperature;BME280_humidity;BME280_pressure;Samples;Min_cycle;Max_cycle;Signal;HPM_P1;HPM_P2
2022/04/24 00:00:18;;;;;;;10.07;9.07;;;10.30;99.90;;;;;;5058988;28;20013;-76
2022/04/24 00:02:44;;;;;;;9.10;8.20;;;10.40;99.90;;;;;;5054212;28;20032;-75
2022/04/24 00:05:10;;;;;;;10.32;8.98;;;10.40;99.90;;;;;;5054117;28;20116;-74
2022/04/24 00:07:36;;;;;;;11.80;9.07;;;10.40;99.90;;;;;;5054164;28;20514;-75
2022/04/24 00:10:01;;;;;;;10.63;8.77;;;10.20;99.90;;;;;;5053694;28;20021;-74
2022/04/24 00:12:27;;;;;;;9.95;8.88;;;10.30;99.90;;;;;;5078362;28;20017;-74
2022/04/24 00:14:52;;;;;;;9.95;8.95;;;10.10;99.90;;;;;;5052522;28;20033;-75
2022/04/24 00:17:20;;;;;;;11.15;9.07;;;10.10;99.90;;;;;;5052610;28;20520;-74
2022/04/24 00:19:49;;;;;;;11.13;9.48;;;10.00;99.90;;;;;;5052649;28;20029;-74
2022/04/24 00:22:15;;;;;;;10.15;9.15;;;9.90;99.90;;;;;;5053167;28;20024;-73
2022/04/24 00:24:41;;;;;;;10.52;9.43;;;9.70;99.90;;;;;;5054012;28;20075;-75
2022/04/24 00:27:08;;;;;;;10.73;9.27;;;9.80;99.90;;;;;;5053937;28;20025;-73
2022/04/24 00:29:34;;;;;;;10.40;9.07;;;10.10;99.90;;;;;;5053751;28;20387;-73
2022/04/24 00:31:59;;;;;;;12.32;9.38;;;10.10;99.90;;;;;;5053149;28;20091;-73
2022/04/24 00:34:25;;;;;;;10.35;9.23;;;10.10;99.90;;;;;;5053714;28;20029;-73
2022/04/24 00:36:50;;;;;;;11.68;9.77;;;10.20;99.90;;;;;;5053641;28;20056;-74
2022/04/24 00:39:16;;;;;;;11.98;9.60;;;9.90;99.90;;;;;;5053480;28;20037;-75
2022/04/24 00:41:47;;;;;;;11.30;9.68;;;10.10;99.90;;;;;;5053025;28;20021;-75
2022/04/24 00:44:14;;;;;;;11.25;9.75;;;10.00;99.90;;;;;;5053598;28;20024;-75
2022/04/24 00:46:41;;;;;;;14.27;9.68;;;9.80;99.90;;;;;;5053218;28;20059;-75
2022/04/24 00:49:11;;;;;;;12.55;9.77;;;10.20;99.90;;;;;;5053142;28;20372;-75
2022/04/24 00:51:39;;;;;;;13.00;9.88;;;10.10;99.90;;;;;;5051203;28;20021;-74
2022/04/24 00:54:09;;;;;;;10.48;9.38;;;9.90;99.90;;;;;;5052049;28;20017;-75
2022/04/24 00:56:35;;;;;;;12.02;10.07;;;10.00;99.90;;;;;;5051784;28;20048;-76
2022/04/24 00:59:03;;;;;;;10.60;9.48;;;10.10;99.90;;;;;;5053153;28;20024;-75
2022/04/24 01:01:30;;;;;;;11.82;10.38;;;10.10;99.90;;;;;;5052493;28;20099;-75
2022/04/24 01:04:00;;;;;;;11.43;9.90;;;10.20;99.90;;;;;;5053143;28;20032;-76
2022/04/24 01:06:27;;;;;;;11.30;10.02;;;10.20;99.90;;;;;;5052408;28;20159;-77
2022/04/24 01:08:53;;;;;;;13.20;11.10;;;10.30;99.90;;;;;;5053554;28;20033;-75
2022/04/24 01:11:19;;;;;;;11.57;10.38;;;10.30;99.90;;;;;;5052637;28;20032;-74
2022/04/24 01:13:45;;;;;;;11.60;10.40;;;10.40;99.90;;;;;;5053108;28;20028;-73
2022/04/24 01:16:10;;;;;;;11.13;9.73;;;10.40;99.90;;;;;;5053054;28;20501;-74
2022/04/24 01:18:37;;;;;;;12.10;10.90;;;10.50;99.90;;;;;;5052954;28;20051;-72
2022/04/24 01:21:09;;;;;;;11.00;9.88;;;10.50;99.90;;;;;;5052232;28;20029;-73
2022/04/24 01:23:35;;;;;;;11.23;9.95;;;10.50;99.90;;;;;;5051597;28;20052;-75
2022/04/24 01:26:00;;;;;;;12.70;11.30;;;10.30;99.90;;;;;;5046515;28;20057;-74
2022/04/24 01:28:26;;;;;;;13.65;11.55;;;10.30;99.90;;;;;;5051496;28;20048;-74
2022/04/24 01:30:51;;;;;;;14.88;11.45;;;10.30;99.90;;;;;;5048341;28;20035;-74
2022/04/24 01:33:17;;;;;;;15.05;11.55;;;10.30;99.90;;;;;;5052817;28;20083;-76
2022/04/24 01:35:42;;;;;;;12.20;10.68;;;10.40;99.90;;;;;;5051506;28;20544;-72
2022/04/24 01:38:08;;;;;;;14.18;11.27;;;10.40;99.90;;;;;;5052634;28;20422;-73
2022/04/24 01:40:33;;;;;;;14.23;11.55;;;10.40;99.90;;;;;;5051636;28;20048;-74
2022/04/24 01:42:59;;;;;;;13.48;10.82;;;10.30;99.90;;;;;;5051300;28;20021;-72
2022/04/24 01:45:24;;;;;;;13.68;11.30;;;10.20;99.90;;;;;;5052533;28;20017;-73
2022/04/24 01:47:50;;;;;;;12.40;11.10;;;10.20;99.90;;;;;;5052281;28;20025;-75
2022/04/24 01:50:15;;;;;;;14.45;11.38;;;10.10;99.90;;;;;;5050653;28;20028;-75
2022/04/24 01:52:41;;;;;;;13.63;11.10;;;10.10;99.90;;;;;;5051959;28;20036;-76
2022/04/24 01:55:06;;;;;;;13.57;11.88;;;10.00;99.90;;;;;;5052284;28;20474;-75
2022/04/24 01:57:32;;;;;;;14.70;11.73;;;10.00;99.90;;;;;;5050937;28;20481;-76
2022/04/24 01:59:58;;;;;;;13.57;10.98;;;9.90;99.90;;;;;;5051766;28;20529;-74
2022/04/24 02:02:23;;;;;;;13.80;11.43;;;9.80;99.90;;;;;;5051407;28;20032;-75
2022/04/24 02:04:49;;;;;;;14.35;11.98;;;9.90;99.90;;;;;;5050936;28;20048;-75
2022/04/24 02:07:14;;;;;;;19.00;13.15;;;9.90;99.90;;;;;;5050920;28;20021;-74
2022/04/24 02:09:40;;;;;;;14.63;11.75;;;9.90;99.90;;;;;;5051962;28;20028;-75
2022/04/24 02:12:06;;;;;;;13.95;12.15;;;9.90;99.90;;;;;;5051231;28;20021;-75
2022/04/24 02:14:32;;;;;;;15.20;12.13;;;9.90;99.90;;;;;;5052015;28;20039;-74
2022/04/24 02:16:58;;;;;;;16.42;12.25;;;9.90;99.90;;;;;;5051784;28;20059;-75
2022/04/24 02:19:24;;;;;;;15.63;12.70;;;9.80;99.90;;;;;;5051896;28;20071;-75
2022/04/24 02:21:49;;;;;;;13.75;12.18;;;9.70;99.90;;;;;;5051133;28;20478;-75
2022/04/24 02:24:15;;;;;;;16.02;13.15;;;9.70;99.90;;;;;;5051814;28;20075;-75
2022/04/24 02:26:41;;;;;;;16.33;12.52;;;9.70;99.90;;;;;;5051696;28;20059;-74
2022/04/24 02:29:07;;;;;;;13.60;11.63;;;9.60;99.90;;;;;;5051352;28;20435;-75
2022/04/24 02:31:32;;;;;;;14.88;12.48;;;9.30;99.90;;;;;;5049533;28;20029;-75
2022/04/24 02:33:58;;;;;;;14.73;12.20;;;9.40;99.90;;;;;;5051533;28;20029;-75
2022/04/24 02:36:23;;;;;;;14.40;12.30;;;9.20;99.90;;;;;;5051592;28;20029;-76
2022/04/24 02:38:49;;;;;;;14.50;12.18;;;9.30;99.90;;;;;;5051565;28;20036;-76
2022/04/24 02:41:14;;;;;;;14.57;12.00;;;9.40;99.90;;;;;;5050931;28;20032;-75
2022/04/24 02:43:40;;;;;;;13.77;11.65;;;9.40;99.90;;;;;;5044392;28;20025;-76
2022/04/24 02:46:05;;;;;;;14.43;11.63;;;9.30;99.90;;;;;;5050071;28;20074;-75
2022/04/24 02:48:31;;;;;;;14.45;12.07;;;9.20;99.90;;;;;;5050165;28;20079;-74
2022/04/24 02:50:57;;;;;;;12.82;11.43;;;9.10;99.90;;;;;;5050699;28;20548;-75
2022/04/24 02:53:23;;;;;;;13.30;11.90;;;9.00;99.90;;;;;;5051448;28;20394;-74
2022/04/24 02:55:49;;;;;;;14.43;11.18;;;9.10;99.90;;;;;;5051302;28;20083;-74
2022/04/24 02:58:14;;;;;;;13.65;10.70;;;9.00;99.90;;;;;;5051253;28;20106;-76
2022/04/24 03:00:42;;;;;;;12.48;10.90;;;9.10;99.90;;;;;;5049235;28;20025;-75
2022/04/24 03:03:09;;;;;;;13.02;11.52;;;9.20;99.90;;;;;;5051422;28;20013;-76
2022/04/24 03:05:35;;;;;;;12.98;11.50;;;9.20;99.90;;;;;;5051450;28;20032;-76
2022/04/24 03:08:01;;;;;;;13.73;11.52;;;9.20;99.90;;;;;;5039297;28;20509;-76
2022/04/24 03:10:28;;;;;;;12.90;10.98;;;9.10;99.90;;;;;;5046098;28;20033;-76
2022/04/24 03:12:54;;;;;;;14.13;12.02;;;9.10;99.90;;;;;;5045155;28;20040;-76
2022/04/24 03:15:19;;;;;;;13.18;11.27;;;9.10;99.90;;;;;;5055221;28;20029;-76
2022/04/24 03:17:46;;;;;;;13.48;11.70;;;9.10;99.90;;;;;;5054862;28;20738;-76
2022/04/24 03:20:13;;;;;;;13.48;12.02;;;9.00;99.90;;;;;;5054935;28;20494;-76
2022/04/24 03:22:39;;;;;;;13.38;11.15;;;9.00;99.90;;;;;;5053773;28;20029;-75
2022/04/24 03:25:07;;;;;;;13.65;11.05;;;9.00;99.90;;;;;;5055175;28;20414;-74
2022/04/24 03:27:33;;;;;;;13.95;11.95;;;9.00;99.90;;;;;;5055035;28;20433;-74
2022/04/24 03:29:58;;;;;;;16.42;13.00;;;9.10;99.90;;;;;;5054634;28;20021;-74
2022/04/24 03:32:24;;;;;;;14.85;13.02;;;9.10;99.90;;;;;;5054443;28;20464;-74
2022/04/24 03:34:50;;;;;;;16.75;13.70;;;9.10;99.90;;;;;;5054922;28;20033;-74
2022/04/24 03:37:16;;;;;;;15.35;13.55;;;9.10;99.90;;;;;;5054853;28;20025;-75
2022/04/24 03:39:41;;;;;;;16.45;14.07;;;9.10;99.90;;;;;;5055004;28;20116;-75
2022/04/24 03:42:07;;;;;;;16.27;13.13;;;9.10;99.90;;;;;;5054281;28;20049;-75
2022/04/24 03:44:33;;;;;;;15.85;13.95;;;9.20;99.90;;;;;;5054610;28;20025;-74
2022/04/24 03:46:59;;;;;;;19.48;13.60;;;9.10;99.90;;;;;;5054831;28;20078;-76
2022/04/24 03:49:28;;;;;;;16.08;14.38;;;9.10;99.90;;;;;;5053203;28;20033;-76
2022/04/24 03:51:54;;;;;;;15.77;13.30;;;9.10;99.90;;;;;;5054561;28;20028;-75
2022/04/24 03:54:20;;;;;;;15.60;14.00;;;9.20;99.90;;;;;;5054602;28;20024;-75
2022/04/24 03:56:45;;;;;;;17.58;14.18;;;9.20;99.90;;;;;;5054552;28;20036;-75
2022/04/24 03:59:11;;;;;;;16.30;14.23;;;9.30;99.90;;;;;;5054300;28;20566;-75
2022/04/24 04:01:36;;;;;;;16.92;14.48;;;9.30;99.90;;;;;;5053777;28;20017;-76
2022/04/24 04:04:02;;;;;;;17.10;14.57;;;9.30;99.90;;;;;;5052915;28;20021;-76
2022/04/24 04:06:28;;;;;;;16.50;14.18;;;9.30;99.90;;;;;;5054183;28;20025;-76
2022/04/24 04:08:53;;;;;;;15.48;13.52;;;9.40;99.90;;;;;;5054151;28;20040;-76
2022/04/24 04:11:19;;;;;;;18.33;14.90;;;9.40;99.90;;;;;;5052309;28;20048;-75
2022/04/24 04:13:44;;;;;;;15.98;14.25;;;9.40;99.90;;;;;;5054187;28;20498;-75
2022/04/24 04:16:10;;;;;;;16.63;13.88;;;9.40;99.90;;;;;;5054200;28;20021;-74
2022/04/24 04:18:36;;;;;;;16.38;13.27;;;9.40;99.90;;;;;;5053999;28;20108;-74
2022/04/24 04:21:01;;;;;;;16.75;14.25;;;9.40;99.90;;;;;;5046701;28;20383;-75
2022/04/24 04:23:27;;;;;;;20.92;15.05;;;9.50;99.90;;;;;;5053450;28;20044;-75
2022/04/24 04:25:52;;;;;;;16.35;14.05;;;9.50;99.90;;;;;;5053959;28;20022;-75
2022/04/24 04:28:18;;;;;;;18.13;14.23;;;9.50;99.90;;;;;;5052636;28;20124;-74
2022/04/24 04:30:43;;;;;;;16.23;14.35;;;9.50;99.90;;;;;;5051861;28;20482;-74
2022/04/24 04:33:12;;;;;;;17.67;14.52;;;9.50;99.90;;;;;;5053901;28;20071;-75
2022/04/24 04:35:38;;;;;;;15.70;14.10;;;9.60;99.90;;;;;;5053780;28;20021;-74
2022/04/24 04:38:04;;;;;;;16.25;13.63;;;9.60;99.90;;;;;;5053584;28;20028;-76
2022/04/24 04:40:30;;;;;;;17.48;15.02;;;9.50;99.90;;;;;;5053025;28;20108;-76
2022/04/24 04:42:56;;;;;;;17.58;15.10;;;9.50;99.90;;;;;;5052428;28;20071;-76
2022/04/24 04:45:22;;;;;;;17.38;14.25;;;9.50;99.90;;;;;;5053683;28;20491;-75
2022/04/24 04:47:47;;;;;;;17.92;15.73;;;9.50;99.90;;;;;;5053648;28;20415;-75
2022/04/24 04:50:13;;;;;;;17.13;14.82;;;9.50;99.90;;;;;;5040917;28;20039;-74
2022/04/24 04:52:39;;;;;;;18.70;14.35;;;9.60;99.90;;;;;;5050538;28;20043;-75
2022/04/24 04:55:05;;;;;;;17.52;15.25;;;9.60;99.90;;;;;;5052172;28;20025;-74
2022/04/24 04:57:31;;;;;;;18.45;15.40;;;9.60;99.90;;;;;;5053006;28;20025;-74
2022/04/24 04:59:57;;;;;;;16.63;14.63;;;9.70;99.90;;;;;;5042532;28;20025;-73
2022/04/24 05:02:23;;;;;;;18.58;15.70;;;9.80;99.90;;;;;;5046352;28;20430;-74
2022/04/24 05:04:48;;;;;;;16.67;14.75;;;9.80;99.90;;;;;;5044699;28;20024;-75
2022/04/24 05:07:14;;;;;;;18.15;14.13;;;9.80;99.90;;;;;;5053238;28;20036;-74
2022/04/24 05:09:40;;;;;;;17.52;14.35;;;9.80;99.90;;;;;;5053210;28;20078;-74
2022/04/24 05:12:07;;;;;;;17.77;15.13;;;9.80;99.90;;;;;;5039162;28;20478;-74
2022/04/24 05:14:33;;;;;;;17.38;15.35;;;9.90;99.90;;;;;;5042880;28;20028;-74
2022/04/24 05:16:59;;;;;;;18.38;15.27;;;9.80;99.90;;;;;;5046544;28;20638;-74
2022/04/24 05:19:25;;;;;;;15.90;14.20;;;9.80;99.90;;;;;;5033161;28;20018;-74
2022/04/24 05:21:52;;;;;;;18.77;14.82;;;9.90;99.90;;;;;;5049675;28;20028;-73
2022/04/24 05:24:17;;;;;;;19.50;16.35;;;9.90;99.90;;;;;;5051659;28;20062;-74
2022/04/24 05:26:43;;;;;;;17.40;15.57;;;9.80;99.90;;;;;;5051597;28;20028;-75
2022/04/24 05:29:08;;;;;;;20.05;15.85;;;9.80;99.90;;;;;;5052734;28;20382;-73
2022/04/24 05:31:34;;;;;;;20.65;16.15;;;9.80;99.90;;;;;;5051011;28;20028;-74
2022/04/24 05:33:59;;;;;;;18.80;15.80;;;9.80;99.90;;;;;;5051531;28;20041;-74
2022/04/24 05:36:25;;;;;;;17.70;15.77;;;9.70;99.90;;;;;;5052898;28;20425;-74
2022/04/24 05:38:51;;;;;;;18.85;16.25;;;9.70;99.90;;;;;;5052704;28;20027;-74
2022/04/24 05:41:16;;;;;;;18.45;15.88;;;9.70;99.90;;;;;;5052268;28;20100;-74
2022/04/24 05:43:42;;;;;;;20.25;15.50;;;9.60;99.90;;;;;;5042070;28;20033;-74
2022/04/24 05:46:07;;;;;;;20.17;17.13;;;9.70;99.90;;;;;;5048681;28;20021;-75
2022/04/24 05:48:33;;;;;;;21.42;16.77;;;9.70;99.90;;;;;;5052809;28;20052;-74
2022/04/24 05:50:59;;;;;;;19.10;15.88;;;9.80;99.90;;;;;;5051569;28;20083;-75
2022/04/24 05:53:24;;;;;;;17.90;15.90;;;9.90;99.90;;;;;;5051135;28;20036;-75
2022/04/24 05:55:50;;;;;;;19.48;16.17;;;9.90;99.90;;;;;;5052120;28;20052;-75
2022/04/24 05:58:15;;;;;;;19.05;16.33;;;9.90;99.90;;;;;;5052282;28;20490;-75
2022/04/24 06:00:41;;;;;;;21.75;17.63;;;9.80;99.90;;;;;;5051611;28;20025;-74
2022/04/24 06:03:06;;;;;;;19.80;16.55;;;9.80;99.90;;;;;;5052276;28;20036;-74
2022/04/24 06:05:32;;;;;;;21.63;18.15;;;9.60;99.90;;;;;;5052111;28;20025;-75
2022/04/24 06:07:57;;;;;;;21.25;18.77;;;9.60;99.90;;;;;;5052052;28;20395;-75
2022/04/24 06:10:23;;;;;;;21.92;19.52;;;9.50;99.90;;;;;;5050479;28;20033;-75
2022/04/24 06:12:54;;;;;;;23.63;20.05;;;9.40;99.90;;;;;;5051989;28;20032;-75
2022/04/24 06:15:24;;;;;;;25.35;21.88;;;9.60;99.90;;;;;;5052041;28;20548;-75
2022/04/24 06:17:52;;;;;;;25.58;21.63;;;9.70;99.90;;;;;;5051936;28;20025;-75
2022/04/24 06:20:19;;;;;;;26.42;20.58;;;9.60;99.90;;;;;;5051141;28;20025;-75
2022/04/24 06:22:47;;;;;;;25.10;21.33;;;9.70;99.90;;;;;;5051856;28;20025;-74
2022/04/24 06:25:23;;;;;;;25.52;22.00;;;9.70;99.90;;;;;;5050544;28;20025;-75
2022/04/24 06:27:50;;;;;;;26.38;22.27;;;9.70;99.90;;;;;;5038454;28;20083;-75
2022/04/24 06:30:17;;;;;;;28.58;22.50;;;9.60;99.90;;;;;;5044477;28;20096;-75
2022/04/24 06:32:44;;;;;;;27.45;22.25;;;9.60;99.90;;;;;;5045336;28;20095;-75
2022/04/24 06:35:11;;;;;;;25.35;21.10;;;9.80;99.90;;;;;;5038695;28;20036;-75
2022/04/24 06:37:42;;;;;;;24.65;20.75;;;10.00;99.90;;;;;;5038098;28;20108;-75
2022/04/24 06:40:09;;;;;;;28.90;22.65;;;10.10;99.90;;;;;;5051731;28;20363;-75
2022/04/24 06:42:46;;;;;;;30.02;23.83;;;10.20;99.90;;;;;;5050905;28;20113;-75
2022/04/24 06:45:11;;;;;;;26.88;22.15;;;10.30;99.90;;;;;;5050204;28;20028;-75
2022/04/24 06:47:37;;;;;;;27.67;22.42;;;10.20;99.90;;;;;;5051554;28;20024;-75
2022/04/24 06:50:02;;;;;;;25.60;21.38;;;10.30;99.90;;;;;;5051331;28;20436;-75
2022/04/24 06:52:28;;;;;;;24.95;20.35;;;10.40;99.90;;;;;;5050620;28;20021;-75
2022/04/24 06:54:54;;;;;;;23.83;20.08;;;10.70;99.90;;;;;;5051442;28;20033;-75
2022/04/24 06:57:19;;;;;;;25.48;20.40;;;10.80;99.90;;;;;;5051385;28;20394;-75
2022/04/24 06:59:45;;;;;;;25.20;21.23;;;10.80;99.90;;;;;;5051445;28;20067;-75
2022/04/24 07:02:10;;;;;;;23.58;19.33;;;10.90;99.90;;;;;;5036228;28;20108;-76
2022/04/24 07:04:36;;;;;;;24.23;19.40;;;10.90;99.90;;;;;;5041323;28;20030;-75
2022/04/24 07:07:02;;;;;;;23.15;18.50;;;11.10;99.90;;;;;;5044959;28;20352;-76
2022/04/24 07:09:29;;;;;;;21.55;18.73;;;10.90;99.90;;;;;;5039039;28;20163;-75
2022/04/24 07:11:54;;;;;;;22.50;19.42;;;10.90;99.90;;;;;;5050904;28;20513;-76
2022/04/24 07:14:20;;;;;;;22.75;19.58;;;10.90;99.90;;;;;;5051446;28;20037;-75
2022/04/24 07:16:45;;;;;;;24.00;19.67;;;11.00;99.90;;;;;;5051315;28;20040;-75
2022/04/24 07:19:11;;;;;;;21.80;19.08;;;11.00;99.90;;;;;;5049943;28;20025;-75
2022/04/24 07:21:36;;;;;;;22.58;20.13;;;10.90;99.90;;;;;;5036177;28;20021;-75
2022/04/24 07:24:03;;;;;;;24.77;19.33;;;10.90;99.90;;;;;;5042472;28;20414;-75
2022/04/24 07:26:29;;;;;;;21.80;19.35;;;11.00;99.90;;;;;;5046939;28;20017;-75
2022/04/24 07:28:54;;;;;;;24.23;20.60;;;11.00;99.90;;;;;;5051085;28;20082;-75
2022/04/24 07:31:20;;;;;;;24.88;20.45;;;10.90;99.90;;;;;;5050589;28;20025;-75
2022/04/24 07:33:45;;;;;;;25.00;21.23;;;10.90;99.90;;;;;;5049722;28;20701;-76
2022/04/24 07:36:11;;;;;;;30.67;23.13;;;10.70;99.90;;;;;;5049747;28;20021;-75
2022/04/24 07:38:37;;;;;;;23.88;20.42;;;10.60;99.90;;;;;;5049574;28;20437;-75
2022/04/24 07:41:03;;;;;;;22.05;19.42;;;10.50;99.90;;;;;;5050323;28;20083;-76
2022/04/24 07:43:29;;;;;;;21.67;19.23;;;10.40;99.90;;;;;;5051046;28;20423;-76
2022/04/24 07:45:54;;;;;;;23.38;19.55;;;10.30;99.90;;;;;;5050873;28;20029;-75
2022/04/24 07:48:20;;;;;;;23.98;19.90;;;10.30;99.90;;;;;;5049750;28;20025;-76
2022/04/24 07:50:50;;;;;;;21.63;18.70;;;10.30;99.90;;;;;;5048509;28;20041;-75
2022/04/24 07:53:17;;;;;;;22.05;19.65;;;10.30;99.90;;;;;;5039704;28;20498;-75
2022/04/24 07:55:44;;;;;;;21.15;18.90;;;10.20;99.90;;;;;;5037520;28;20037;-76
2022/04/24 07:58:10;;;;;;;25.75;19.67;;;10.10;99.90;;;;;;5052181;28;20056;-75
2022/04/24 08:00:36;;;;;;;23.35;19.88;;;10.20;99.90;;;;;;5053706;28;20033;-75
2022/04/24 08:03:07;;;;;;;24.95;21.20;;;10.10;99.90;;;;;;5054459;28;20036;-75
2022/04/24 08:05:37;;;;;;;30.65;23.55;;;10.10;99.90;;;;;;5054204;28;20049;-71
2022/04/24 08:08:11;;;;;;;31.63;23.48;;;10.10;99.90;;;;;;5054167;28;20094;-70
2022/04/24 08:10:39;;;;;;;29.20;24.42;;;10.00;99.90;;;;;;5053292;28;20067;-71
2022/04/24 08:13:05;;;;;;;30.80;22.95;;;10.00;99.90;;;;;;5054088;28;20021;-71
2022/04/24 08:15:32;;;;;;;31.00;25.15;;;10.00;99.90;;;;;;5052703;28;20458;-75
2022/04/24 08:17:58;;;;;;;27.58;24.10;;;10.10;99.90;;;;;;5052751;28;20112;-75
2022/04/24 08:20:24;;;;;;;34.47;25.55;;;9.90;99.90;;;;;;5052046;28;20029;-75
2022/04/24 08:22:53;;;;;;;28.42;24.38;;;9.70;99.90;;;;;;5053980;28;20056;-75
2022/04/24 08:25:23;;;;;;;37.35;28.67;;;9.70;99.90;;;;;;5053965;28;20055;-75
2022/04/24 08:27:50;;;;;;;41.42;31.08;;;9.60;99.90;;;;;;5052613;28;20025;-75
2022/04/24 08:30:20;;;;;;;46.17;33.63;;;9.50;99.90;;;;;;5052574;28;20053;-75
2022/04/24 08:32:47;;;;;;;44.38;33.58;;;9.30;99.90;;;;;;5053471;28;20032;-75
2022/04/24 08:35:15;;;;;;;46.58;34.85;;;9.30;99.90;;;;;;5053754;28;20029;-75
2022/04/24 08:37:41;;;;;;;44.25;32.72;;;9.30;99.90;;;;;;5053503;28;20029;-75
2022/04/24 08:40:08;;;;;;;39.72;30.90;;;9.40;99.90;;;;;;5052310;28;20555;-75
2022/04/24 08:42:34;;;;;;;38.72;30.13;;;9.60;99.90;;;;;;5053047;28;20058;-74
2022/04/24 08:45:01;;;;;;;39.80;31.80;;;9.70;99.90;;;;;;5053601;28;20030;-75
2022/04/24 08:47:27;;;;;;;40.63;30.92;;;9.70;99.90;;;;;;5053542;28;20051;-75
2022/04/24 08:49:55;;;;;;;43.22;33.10;;;9.80;99.90;;;;;;5053173;28;20514;-75
2022/04/24 08:52:21;;;;;;;44.03;34.15;;;9.60;99.90;;;;;;5039430;28;20033;-75
2022/04/24 08:54:48;;;;;;;60.60;41.75;;;9.70;99.90;;;;;;5053411;28;20033;-74
2022/04/24 08:57:14;;;;;;;60.13;39.08;;;9.50;99.90;;;;;;5051789;28;20522;-74
2022/04/24 08:59:40;;;;;;;54.22;39.85;;;9.50;99.90;;;;;;5051542;28;20116;-75
2022/04/24 09:02:07;;;;;;;84.72;48.13;;;9.50;99.90;;;;;;5052625;28;20382;-74
2022/04/24 09:04:33;;;;;;;56.13;38.75;;;9.50;99.90;;;;;;5053218;28;20017;-74
2022/04/24 09:07:01;;;;;;;42.13;30.10;;;9.50;99.90;;;;;;5053193;28;20021;-74
2022/04/24 09:09:27;;;;;;;34.15;26.92;;;9.50;99.90;;;;;;5051647;28;20025;-74
2022/04/24 09:11:52;;;;;;;34.97;26.13;;;9.60;99.90;;;;;;5051213;28;20111;-74
2022/04/24 09:14:19;;;;;;;35.38;26.10;;;9.70;99.90;;;;;;5053217;28;20143;-74
2022/04/24 09:16:47;;;;;;;32.85;26.05;;;9.60;99.90;;;;;;5053069;28;20017;-75
2022/04/24 09:19:23;;;;;;;29.13;21.40;;;9.70;99.90;;;;;;5051852;28;20039;-74
2022/04/24 09:21:53;;;;;;;;;;;9.50;99.90;;;;;;5051524;28;20086;-74
2022/04/24 09:24:18;;;;;;;27.25;20.67;;;9.60;99.90;;;;;;5051680;28;19911;-74
2022/04/24 09:26:51;;;;;;;31.73;23.15;;;9.80;99.90;;;;;;5039438;28;20025;-75
2022/04/24 09:29:17;;;;;;;27.40;19.90;;;9.60;99.90;;;;;;5051487;28;20017;-74
2022/04/24 09:31:47;;;;;;;23.35;18.70;;;9.70;99.90;;;;;;5052152;28;20032;-74
2022/04/24 09:34:13;;;;;;;25.50;19.05;;;9.70;99.90;;;;;;5055631;28;20418;-74
2022/04/24 09:36:39;;;;;;;26.40;20.42;;;9.70;99.90;;;;;;5056152;28;20052;-74
2022/04/24 09:39:04;;;;;;;27.17;18.75;;;9.70;99.90;;;;;;5052507;28;20088;-74
2022/04/24 09:41:30;;;;;;;21.92;16.80;;;9.70;99.90;;;;;;5050651;28;20036;-74
2022/04/24 09:43:56;;;;;;;23.83;17.60;;;9.70;99.90;;;;;;5051068;28;20111;-74
2022/04/24 09:46:28;;;;;;;22.77;17.27;;;9.60;99.90;;;;;;5052465;28;20056;-75
2022/04/24 09:48:57;;;;;;;18.95;15.05;;;9.50;99.90;;;;;;5052268;28;20059;-74
2022/04/24 09:51:22;;;;;;;20.02;15.13;;;9.30;99.90;;;;;;5052330;28;20115;-74
2022/04/24 09:53:49;;;;;;;17.13;11.57;;;9.30;99.90;;;;;;5052479;28;20419;-74
2022/04/24 09:56:15;;;;;;;12.10;8.57;;;9.20;99.90;;;;;;5052326;28;20036;-74
2022/04/24 09:58:41;;;;;;;8.48;6.18;;;9.10;99.90;;;;;;5052242;28;20552;-74
2022/04/24 10:01:10;;;;;;;7.57;5.53;;;9.30;99.90;;;;;;5051499;28;20031;-74
2022/04/24 10:03:39;;;;;;;7.22;5.57;;;9.30;99.90;;;;;;5052103;28;20025;-74
2022/04/24 10:06:07;;;;;;;9.38;6.55;;;9.20;99.90;;;;;;5052124;28;20051;-74
2022/04/24 10:08:35;;;;;;;9.25;6.85;;;9.40;99.90;;;;;;5050740;28;20029;-74
2022/04/24 10:11:08;;;;;;;7.45;5.97;;;9.50;99.90;;;;;;5051329;28;20498;-74
2022/04/24 10:13:44;;;;;;;7.68;6.15;;;9.60;99.90;;;;;;5051953;28;20033;-74
2022/04/24 10:16:48;;;;;;;;;;;9.70;99.90;;;;;;5052499;28;20104;-74
2022/04/24 10:19:23;;;;;;;10.60;7.30;;;9.70;99.90;;;;;;4997036;28;19921;-74
2022/04/24 10:22:06;;;;;;;10.73;8.43;;;9.60;99.90;;;;;;4997894;28;20089;-75
2022/04/24 10:24:42;;;;;;;9.60;6.90;;;9.60;99.90;;;;;;5024908;28;20034;-74
2022/04/24 10:27:11;;;;;;;6.53;4.97;;;9.20;99.90;;;;;;5060268;28;20035;-74
2022/04/24 10:29:47;;;;;;;7.43;5.95;;;9.20;99.90;;;;;;5046167;28;20498;-74
2022/04/24 10:32:23;;;;;;;5.47;4.90;;;9.10;99.90;;;;;;5048405;28;20076;-75
2022/04/24 10:34:49;;;;;;;;;;;9.10;99.90;;;;;;5040845;28;20059;-75
2022/04/24 10:37:31;;;;;;;6.80;5.83;;;9.00;99.90;;;;;;5050359;28;19940;-74
2022/04/24 10:39:58;;;;;;;5.18;4.28;;;9.40;99.90;;;;;;5050889;28;20063;-74
2022/04/24 10:42:31;;;;;;;7.47;4.40;;;9.50;99.90;;;;;;5051183;28;20013;-74
2022/04/24 10:45:10;;;;;;;8.85;6.55;;;9.30;99.90;;;;;;5040877;28;20100;-74
2022/04/24 10:48:03;;;;;;;154.07;81.43;;;9.60;99.90;;;;;;5049896;28;20047;-76
2022/04/24 10:50:29;;;;;;;30.63;18.08;;;9.60;99.90;;;;;;5038988;28;20030;-74
2022/04/24 10:52:55;;;;;;;222.75;115.82;;;9.90;99.90;;;;;;5049915;28;20079;-74
2022/04/24 10:55:30;;;;;;;13.20;8.63;;;9.90;99.90;;;;;;5051508;28;20029;-74
2022/04/24 10:57:59;;;;;;;72.95;38.83;;;9.80;99.90;;;;;;5050009;28;20051;-74
2022/04/24 11:00:34;;;;;;;46.78;24.48;;;9.90;99.90;;;;;;5051090;28;20044;-74
2022/04/24 11:03:14;;;;;;;5.38;4.15;;;9.90;99.90;;;;;;5043092;28;20024;-74
2022/04/24 11:05:45;;;;;;;4.85;3.88;;;9.70;99.90;;;;;;5051556;28;20083;-74
2022/04/24 11:08:18;;;;;;;3.53;3.20;;;10.00;99.90;;;;;;5050029;28;20056;-74
2022/04/24 11:10:46;;;;;;;2.60;2.38;;;10.20;99.90;;;;;;5051139;28;20029;-74
2022/04/24 11:13:13;;;;;;;3.00;2.70;;;10.50;99.90;;;;;;5051484;28;20025;-74
2022/04/24 11:15:42;;;;;;;2.55;2.13;;;10.60;99.90;;;;;;5051570;28;20029;-74
2022/04/24 11:18:21;;;;;;;2.58;2.30;;;10.50;99.90;;;;;;5033440;28;20129;-74
2022/04/24 11:21:03;;;;;;;3.22;2.70;;;10.70;99.90;;;;;;5046714;28;20063;-75
2022/04/24 11:23:30;;;;;;;2.67;1.80;;;10.90;99.90;;;;;;5034007;28;20506;-75
2022/04/24 11:25:57;;;;;;;2.55;1.65;;;11.00;99.90;;;;;;5051244;28;20021;-75
2022/04/24 11:28:34;;;;;;;1.50;1.20;;;11.30;99.90;;;;;;5051210;28;20021;-74
2022/04/24 11:31:08;;;;;;;;;;;11.30;99.90;;;;;;5077371;28;20029;-74
2022/04/24 11:33:38;;;;;;;2.47;1.98;;;11.30;99.90;;;;;;5053343;28;19923;-74
2022/04/24 11:36:04;;;;;;;1.65;1.55;;;11.60;99.90;;;;;;5054827;28;20038;-74
2022/04/24 11:38:31;;;;;;;2.17;1.85;;;11.80;99.90;;;;;;5054947;28;20051;-74
2022/04/24 11:41:03;;;;;;;1.45;1.10;;;12.20;99.90;;;;;;5067194;28;20470;-75
2022/04/24 11:43:29;;;;;;;1.38;1.10;;;12.50;99.90;;;;;;5055008;28;20013;-74
2022/04/24 11:51:24;;;;;;;1.48;0.88;;;13.50;99.90;;;;;;5041661;28;20451;-74
2022/04/24 11:53:51;;;;;;;1.00;0.80;;;13.20;99.90;;;;;;5059367;28;20025;-74
2022/04/24 11:56:16;;;;;;;0.98;0.90;;;13.20;99.90;;;;;;5054717;28;20024;-75
2022/04/24 11:58:44;;;;;;;1.40;1.15;;;13.00;99.90;;;;;;5053343;28;20082;-75
2022/04/24 12:01:13;;;;;;;1.25;1.08;;;12.90;99.90;;;;;;5054026;28;20017;-75
2022/04/24 12:03:43;;;;;;;2.13;1.05;;;13.20;99.90;;;;;;5054367;28;20021;-74
2022/04/24 12:06:13;;;;;;;1.05;0.80;;;13.50;99.90;;;;;;5054407;28;20498;-74
2022/04/24 12:08:44;;;;;;;0.90;0.80;;;12.40;99.90;;;;;;5053539;28;20104;-75
2022/04/24 12:11:22;;;;;;;1.27;0.90;;;11.80;99.90;;;;;;5054648;28;20029;-74
2022/04/24 12:14:16;;;;;;;0.88;0.88;;;12.10;99.90;;;;;;5054861;28;20375;-75
2022/04/24 12:16:47;;;;;;;1.13;1.02;;;12.30;99.90;;;;;;5053465;28;20035;-74
2022/04/24 12:19:18;;;;;;;1.10;1.00;;;12.00;99.90;;;;;;5053226;28;20505;-74
2022/04/24 12:21:46;;;;;;;1.00;0.90;;;11.90;99.90;;;;;;5054004;28;20467;-75
2022/04/24 12:24:11;;;;;;;3.45;2.65;;;11.60;99.90;;;;;;5054562;28;20021;-75
2022/04/24 12:26:51;;;;;;;1.40;1.30;;;11.70;99.90;;;;;;5039896;28;20029;-75
2022/04/24 12:29:17;;;;;;;2.15;1.50;;;11.50;99.90;;;;;;5042376;28;20056;-75
2022/04/24 12:31:44;;;;;;;1.20;1.10;;;11.80;99.90;;;;;;5051211;28;20021;-74
2022/04/24 12:34:10;;;;;;;1.40;1.23;;;11.80;99.90;;;;;;5041877;28;20022;-74
2022/04/24 12:36:49;;;;;;;1.42;1.23;;;11.60;99.90;;;;;;5038216;28;20115;-75
2022/04/24 12:39:21;;;;;;;2.30;1.10;;;11.50;99.90;;;;;;5053765;28;20055;-74
2022/04/24 12:41:47;;;;;;;1.08;0.95;;;11.20;99.90;;;;;;5053296;28;20021;-74
2022/04/24 12:44:12;;;;;;;1.20;1.10;;;11.30;99.90;;;;;;5053105;28;20044;-75